createdAt,value
2022-10-12T00:01:07.303Z,29.98
2022-10-12T00:03:35.552Z,27.98
2022-10-12T00:06:05.278Z,25.88
2022-10-12T00:08:33.386Z,28.92
2022-10-12T00:11:00.367Z,26.48
2022-10-12T00:13:27.832Z,26.38
2022-10-12T00:15:54.908Z,30.80
2022-10-12T00:18:22.020Z,30.17
2022-10-12T00:20:48.998Z,26.05
2022-10-12T00:23:15.973Z,24.88
2022-10-12T00:25:42.978Z,29.38
2022-10-12T00:28:10.025Z,24.73
2022-10-12T00:30:40.602Z,31.35
2022-10-12T00:33:07.598Z,23.27
2022-10-12T00:35:34.647Z,24.73
2022-10-12T00:38:01.644Z,24.50
2022-10-12T00:40:28.684Z,26.90
2022-10-12T00:42:55.686Z,25.05
2022-10-12T00:45:25.244Z,26.45
2022-10-12T00:47:56.246Z,23.45
2022-10-12T00:50:30.671Z,26.67
2022-10-12T00:53:04.478Z,26.83
2022-10-12T00:55:38.356Z,26.75
2022-10-12T00:58:08.484Z,29.90
2022-10-12T01:00:38.450Z,29.17
2022-10-12T01:03:08.365Z,30.45
2022-10-12T01:08:03.056Z,26.77
2022-10-12T01:10:30.118Z,28.83
2022-10-12T01:12:57.334Z,28.38
2022-10-12T01:15:31.782Z,28.20
2022-10-12T01:18:20.201Z,29.13
2022-10-12T01:21:09.786Z,27.85
2022-10-12T01:23:39.766Z,26.15
2022-10-12T01:26:39.326Z,23.85
2022-10-12T01:29:12.095Z,26.77
2022-10-12T01:31:53.077Z,25.70
2022-10-12T01:34:34.836Z,29.35
2022-10-12T01:37:11.739Z,29.48
2022-10-12T01:39:47.151Z,29.77
2022-10-12T01:42:20.255Z,30.17
2022-10-12T01:44:47.227Z,35.50
2022-10-12T01:47:14.330Z,30.10
2022-10-12T01:49:41.410Z,24.73
2022-10-12T01:52:17.355Z,27.98
2022-10-12T01:55:00.068Z,31.48
2022-10-12T01:57:45.148Z,26.27
2022-10-12T02:00:15.000Z,34.05
2022-10-12T02:05:42.651Z,28.45
2022-10-12T02:08:22.217Z,26.90
2022-10-12T02:10:58.473Z,30.73
2022-10-12T02:13:29.684Z,30.20
2022-10-12T02:15:59.161Z,34.83
2022-10-12T02:18:28.869Z,33.00
2022-10-12T02:20:59.106Z,28.23
2022-10-12T02:23:28.334Z,29.35
2022-10-12T02:25:57.724Z,26.98
2022-10-12T02:28:28.006Z,31.17
2022-10-12T02:31:18.778Z,31.23
2022-10-12T02:33:49.533Z,28.90
2022-10-12T02:36:26.137Z,30.05
2022-10-12T02:39:13.639Z,33.78
2022-10-12T02:41:46.678Z,29.13
2022-10-12T02:44:19.817Z,31.20
2022-10-12T02:46:48.527Z,29.48
2022-10-12T02:49:17.562Z,27.00
2022-10-12T02:51:46.276Z,30.08
2022-10-12T02:54:13.982Z,30.60
2022-10-12T02:56:45.973Z,31.15
2022-10-12T02:59:17.758Z,33.45
2022-10-12T03:01:44.747Z,25.50
2022-10-12T03:04:11.894Z,31.88
2022-10-12T03:06:38.933Z,36.63
2022-10-12T03:09:05.883Z,30.83
2022-10-12T03:11:32.860Z,35.10
2022-10-12T03:14:00.172Z,36.78
2022-10-12T03:16:27.137Z,30.95
2022-10-12T03:18:54.135Z,31.90
2022-10-12T03:21:21.528Z,37.03
2022-10-12T03:23:48.527Z,30.60
2022-10-12T03:26:15.462Z,28.77
2022-10-12T03:28:42.446Z,31.23
2022-10-12T03:31:09.398Z,31.45
2022-10-12T03:33:36.389Z,31.08
2022-10-12T03:36:03.778Z,33.33
2022-10-12T03:38:30.739Z,38.60
2022-10-12T03:40:59.211Z,40.17
2022-10-12T03:43:27.791Z,37.17
2022-10-12T03:45:54.779Z,39.53
2022-10-12T03:48:21.806Z,37.65
2022-10-12T03:50:51.280Z,37.70
2022-10-12T03:53:19.177Z,35.50
2022-10-12T03:55:46.704Z,35.53
2022-10-12T03:58:14.543Z,35.20
2022-10-12T04:00:41.636Z,35.50
2022-10-12T04:03:08.600Z,37.35
2022-10-12T04:05:35.595Z,34.20
2022-10-12T04:08:02.707Z,37.75
2022-10-12T04:10:29.665Z,38.80
2022-10-12T04:13:26.618Z,35.25
2022-10-12T04:15:53.615Z,34.35
2022-10-12T04:18:20.565Z,35.88
2022-10-12T04:20:49.287Z,34.30
2022-10-12T04:23:16.342Z,38.85
2022-10-12T04:25:43.350Z,35.65
2022-10-12T04:28:10.351Z,34.25
2022-10-12T04:30:37.382Z,32.42
2022-10-12T04:33:04.775Z,31.17
2022-10-12T04:35:32.090Z,35.95
2022-10-12T04:37:59.057Z,32.97
2022-10-12T04:40:26.058Z,42.40
2022-10-12T04:42:52.996Z,37.33
2022-10-12T04:45:20.064Z,35.42
2022-10-12T04:47:47.006Z,33.55
2022-10-12T04:50:14.063Z,42.05
2022-10-12T04:52:41.102Z,36.72
2022-10-12T04:55:08.857Z,47.78
2022-10-12T04:57:36.030Z,40.85
2022-10-12T05:00:03.847Z,56.25
2022-10-12T05:02:30.770Z,78.30
2022-10-12T05:04:58.259Z,88.18
2022-10-12T05:07:25.334Z,59.40
2022-10-12T05:09:52.313Z,41.85
2022-10-12T05:12:19.342Z,57.20
2022-10-12T05:14:46.376Z,61.42
2022-10-12T05:17:13.334Z,48.97
2022-10-12T05:19:40.265Z,44.65
2022-10-12T05:22:07.250Z,42.90
2022-10-12T05:24:34.281Z,44.65
2022-10-12T05:27:01.340Z,43.53
2022-10-12T05:30:06.131Z,38.58
2022-10-12T05:32:33.195Z,56.28
2022-10-12T05:35:00.532Z,42.75
2022-10-12T05:37:27.581Z,42.63
2022-10-12T05:39:54.738Z,38.55
2022-10-12T05:42:21.691Z,36.25
2022-10-12T05:44:48.676Z,34.47
2022-10-12T05:47:15.682Z,37.97
2022-10-12T05:49:42.668Z,36.20
2022-10-12T05:52:09.625Z,38.92
2022-10-12T05:54:36.654Z,37.50
2022-10-12T05:57:03.845Z,40.67
2022-10-12T05:59:30.851Z,33.35
2022-10-12T06:01:57.921Z,39.97
2022-10-12T06:04:25.133Z,37.58
2022-10-12T06:06:52.093Z,41.22
2022-10-12T06:09:19.382Z,42.35
2022-10-12T06:11:46.432Z,40.33
2022-10-12T06:14:13.468Z,34.33
2022-10-12T06:16:40.489Z,36.15
2022-10-12T06:19:07.539Z,41.70
2022-10-12T06:21:34.990Z,39.10
2022-10-12T06:24:02.412Z,41.38
2022-10-12T06:26:29.401Z,41.65
2022-10-12T06:28:56.544Z,43.50
2022-10-12T06:31:23.610Z,45.20
2022-10-12T06:33:51.134Z,42.03
2022-10-12T06:36:18.304Z,49.20
2022-10-12T06:38:45.301Z,39.58
2022-10-12T06:41:12.620Z,40.97
2022-10-12T06:43:39.590Z,47.13
2022-10-12T06:46:06.654Z,45.38
2022-10-12T06:48:33.605Z,44.65
2022-10-12T06:51:00.620Z,52.13
2022-10-12T06:53:31.075Z,43.92
2022-10-12T06:55:58.035Z,36.28
2022-10-12T06:58:25.283Z,42.30
2022-10-12T07:00:52.636Z,44.17
2022-10-12T07:03:20.416Z,47.50
2022-10-12T07:05:47.447Z,52.55
2022-10-12T07:08:14.451Z,47.25
2022-10-12T07:10:41.400Z,47.63
2022-10-12T07:13:08.359Z,47.63
2022-10-12T07:15:35.355Z,50.15
2022-10-12T07:18:02.299Z,52.03
2022-10-12T07:20:29.285Z,46.22
2022-10-12T07:22:56.245Z,43.08
2022-10-12T07:25:23.206Z,46.45
2022-10-12T07:27:50.503Z,42.28
2022-10-12T07:30:17.655Z,52.03
2022-10-12T07:32:46.220Z,49.58
2022-10-12T07:35:13.262Z,46.85
2022-10-12T07:37:40.537Z,49.20
2022-10-12T07:40:08.561Z,52.92
2022-10-12T07:42:35.517Z,51.35
2022-10-12T07:45:02.491Z,53.20
2022-10-12T07:47:29.479Z,50.00
2022-10-12T07:49:56.489Z,53.15
2022-10-12T07:52:23.526Z,49.80
2022-10-12T07:54:50.520Z,54.42
2022-10-12T07:57:17.486Z,52.63
2022-10-12T07:59:44.472Z,51.78
2022-10-12T08:02:12.406Z,48.55
2022-10-12T08:04:39.664Z,49.40
2022-10-12T08:07:06.668Z,48.30
2022-10-12T08:09:35.999Z,52.08
2022-10-12T08:12:03.872Z,45.55
2022-10-12T08:14:30.825Z,45.53
2022-10-12T08:16:57.700Z,48.50
2022-10-12T08:19:24.601Z,44.55
2022-10-12T08:21:52.679Z,44.53
2022-10-12T08:24:19.763Z,39.85
2022-10-12T08:26:46.703Z,38.88
2022-10-12T08:29:13.725Z,43.28
2022-10-12T08:31:40.900Z,41.92
2022-10-12T08:34:08.345Z,41.55
2022-10-12T08:36:35.297Z,43.33
2022-10-12T08:39:02.637Z,38.55
2022-10-12T08:41:35.479Z,42.50
2022-10-12T08:44:33.600Z,40.38
2022-10-12T08:47:10.953Z,40.15
2022-10-12T08:49:40.412Z,42.92
2022-10-12T08:52:37.602Z,42.30
2022-10-12T08:55:16.925Z,41.95
2022-10-12T08:57:49.063Z,47.63
2022-10-12T09:00:18.158Z,40.08
2022-10-12T09:02:57.006Z,44.67
2022-10-12T09:05:34.131Z,48.50
2022-10-12T09:08:19.837Z,44.75
2022-10-12T09:10:53.466Z,41.65
2022-10-12T09:14:02.032Z,43.33
2022-10-12T09:16:32.650Z,39.25
2022-10-12T09:19:05.445Z,36.72
2022-10-12T09:21:33.207Z,38.60
2022-10-12T09:24:01.104Z,41.00
2022-10-12T09:26:36.989Z,36.78
2022-10-12T09:29:24.554Z,37.10
2022-10-12T09:32:20.369Z,33.83
2022-10-12T09:34:49.183Z,39.30
2022-10-12T09:37:20.858Z,40.58
2022-10-12T09:39:49.117Z,41.45
2022-10-12T09:42:16.677Z,37.30
2022-10-12T09:45:02.121Z,35.90
2022-10-12T09:47:31.725Z,37.45
2022-10-12T09:50:08.272Z,36.70
2022-10-12T09:52:44.076Z,40.60
2022-10-12T09:57:56.434Z,40.90
2022-10-12T10:00:35.872Z,35.20
2022-10-12T10:03:03.522Z,35.03
2022-10-12T10:05:36.712Z,40.50
2022-10-12T10:08:22.450Z,41.88
2022-10-12T10:11:00.929Z,36.72
2022-10-12T10:13:32.787Z,37.38
2022-10-12T10:16:11.038Z,36.78
2022-10-12T10:18:50.599Z,39.03
2022-10-12T10:21:26.698Z,39.17
2022-10-12T10:24:02.634Z,37.33
2022-10-12T10:26:51.187Z,35.25
2022-10-12T10:29:35.029Z,41.30
2022-10-12T10:32:26.421Z,39.30
2022-10-12T10:35:11.831Z,40.20
2022-10-12T10:37:42.780Z,36.30
2022-10-12T10:40:24.843Z,33.72
2022-10-12T10:42:55.828Z,38.85
2022-10-12T10:45:29.520Z,40.63
2022-10-12T10:48:01.516Z,34.97
2022-10-12T10:50:40.930Z,35.33
2022-10-12T10:53:22.225Z,33.80
2022-10-12T10:56:12.935Z,37.78
2022-10-12T10:58:45.905Z,37.08
2022-10-12T11:01:15.616Z,35.78
2022-10-12T11:04:04.823Z,35.13
2022-10-12T11:06:43.483Z,36.08
2022-10-12T11:09:17.485Z,34.63
2022-10-12T11:11:49.954Z,33.88
2022-10-12T11:14:20.811Z,37.15
2022-10-12T11:17:10.411Z,38.15
2022-10-12T11:19:42.372Z,36.17
2022-10-12T11:22:18.789Z,33.65
2022-10-12T11:24:51.362Z,34.70
2022-10-12T11:27:28.358Z,37.92
2022-10-12T11:30:09.036Z,37.00
2022-10-12T11:32:41.762Z,30.65
2022-10-12T11:35:23.753Z,31.15
2022-10-12T11:38:04.632Z,36.22
2022-10-12T11:41:05.626Z,31.60
2022-10-12T11:44:09.615Z,35.70
2022-10-12T11:47:01.569Z,31.73
2022-10-12T11:49:51.447Z,33.22
2022-10-12T11:54:54.280Z,32.60
2022-10-12T11:57:31.407Z,26.92
2022-10-12T12:00:22.615Z,26.40
2022-10-12T12:03:03.059Z,27.63
2022-10-12T12:05:33.175Z,30.55
2022-10-12T12:08:00.242Z,23.67
2022-10-12T12:10:35.400Z,23.15
2022-10-12T12:13:12.948Z,22.00
2022-10-12T12:16:03.927Z,26.63
2022-10-12T12:19:10.851Z,28.45
2022-10-12T12:22:13.118Z,26.08
2022-10-12T12:24:50.671Z,23.20
2022-10-12T12:27:31.587Z,23.65
2022-10-12T12:30:01.466Z,23.83
2022-10-12T12:35:54.523Z,21.08
2022-10-12T12:38:32.104Z,17.90
2022-10-12T12:41:11.587Z,20.38
2022-10-12T12:43:58.172Z,22.90
2022-10-12T12:46:54.091Z,27.23
2022-10-12T12:49:46.302Z,20.10
2022-10-12T12:52:37.057Z,18.33
2022-10-12T12:55:42.145Z,14.55
2022-10-12T12:58:24.237Z,19.50
2022-10-12T13:01:03.486Z,20.30
2022-10-12T13:03:45.372Z,16.83
2022-10-12T13:06:33.832Z,17.48
2022-10-12T13:09:48.388Z,18.30
2022-10-12T13:12:33.971Z,14.73
2022-10-12T13:15:12.837Z,16.52
2022-10-12T13:18:23.311Z,25.13
2022-10-12T13:21:00.144Z,24.05
2022-10-12T13:23:28.206Z,21.90
2022-10-12T13:26:03.715Z,17.92
2022-10-12T13:33:03.642Z,12.88
2022-10-12T13:35:37.177Z,19.40
2022-10-12T13:38:21.067Z,16.60
2022-10-12T13:41:14.200Z,16.45
2022-10-12T13:43:59.809Z,16.30
2022-10-12T13:46:56.836Z,18.02
2022-10-12T13:49:42.981Z,20.17
2022-10-12T13:52:12.940Z,15.93
2022-10-12T13:54:42.784Z,16.58
2022-10-12T13:58:01.074Z,23.70
2022-10-12T14:00:36.518Z,17.73
2022-10-12T14:03:08.727Z,15.70
2022-10-12T14:05:44.096Z,15.30
2022-10-12T14:08:19.394Z,14.90
2022-10-12T14:10:46.619Z,14.43
2022-10-12T14:13:15.663Z,16.50
2022-10-12T14:15:43.054Z,14.02
2022-10-12T14:18:39.633Z,16.00
2022-10-12T14:21:25.588Z,12.93
2022-10-12T14:23:57.162Z,14.48
2022-10-12T14:26:38.491Z,11.80
2022-10-12T14:29:33.540Z,15.32
2022-10-12T14:32:24.057Z,23.83
2022-10-12T14:35:24.055Z,16.13
2022-10-12T14:37:52.656Z,18.08
2022-10-12T14:40:38.633Z,20.50
2022-10-12T14:43:20.120Z,31.88
2022-10-12T14:45:47.209Z,19.05
2022-10-12T14:48:17.370Z,17.42
2022-10-12T14:50:44.738Z,20.90
2022-10-12T14:53:13.559Z,18.67
2022-10-12T14:55:41.787Z,14.77
2022-10-12T14:58:13.978Z,18.00
2022-10-12T15:00:41.029Z,19.85
2022-10-12T15:03:08.103Z,17.25
2022-10-12T15:05:35.147Z,17.52
2022-10-12T15:08:07.426Z,17.85
2022-10-12T15:10:35.574Z,15.38
2022-10-12T15:13:02.618Z,19.52
2022-10-12T15:15:35.483Z,22.27
2022-10-12T15:18:02.827Z,22.02
2022-10-12T15:20:31.248Z,21.63
2022-10-12T15:22:59.497Z,23.52
2022-10-12T15:25:51.645Z,15.40
2022-10-12T15:28:19.320Z,20.15
2022-10-12T15:31:15.381Z,17.55
2022-10-12T15:33:33.709Z,19.42
2022-10-12T15:36:01.205Z,15.93
2022-10-12T15:38:28.183Z,15.88
2022-10-12T15:40:58.141Z,16.98
2022-10-12T15:43:26.047Z,21.67
2022-10-12T15:45:53.561Z,17.40
2022-10-12T15:48:20.532Z,18.20
2022-10-12T15:50:49.819Z,15.82
2022-10-12T15:53:21.005Z,17.00
2022-10-12T15:55:48.475Z,23.40
2022-10-12T15:58:15.880Z,15.82
2022-10-12T16:00:56.623Z,16.45
2022-10-12T16:03:26.287Z,16.88
2022-10-12T16:05:53.820Z,19.27
2022-10-12T16:08:20.959Z,17.40
2022-10-12T16:10:48.401Z,18.20
2022-10-12T16:13:16.497Z,15.65
2022-10-12T16:15:44.241Z,13.80
2022-10-12T16:18:12.072Z,16.83
2022-10-12T16:20:41.272Z,17.73
2022-10-12T16:23:31.167Z,18.35
2022-10-12T16:25:59.138Z,18.52
2022-10-12T16:28:26.242Z,16.92
2022-10-12T16:30:53.224Z,17.08
2022-10-12T16:33:20.207Z,18.67
2022-10-12T16:35:47.873Z,19.75
2022-10-12T16:38:15.259Z,17.88
2022-10-12T16:40:42.857Z,19.75
2022-10-12T16:43:10.640Z,18.50
2022-10-12T16:45:38.018Z,20.25
2022-10-12T16:48:05.161Z,21.52
2022-10-12T16:50:32.444Z,19.55
2022-10-12T16:52:59.442Z,25.88
2022-10-12T16:55:26.502Z,17.65
2022-10-12T16:57:53.450Z,17.80
2022-10-12T17:00:20.857Z,21.33
2022-10-12T17:02:48.131Z,23.20
2022-10-12T17:05:15.158Z,17.15
2022-10-12T17:07:42.221Z,19.98
2022-10-12T17:10:09.829Z,17.45
2022-10-12T17:12:36.863Z,20.25
2022-10-12T17:15:04.883Z,23.20
2022-10-12T17:17:31.953Z,22.55
2022-10-12T17:19:58.995Z,21.52
2022-10-12T17:22:26.286Z,20.95
2022-10-12T17:24:53.514Z,25.02
2022-10-12T17:27:20.590Z,25.63
2022-10-12T17:29:47.820Z,24.13
2022-10-12T17:32:15.253Z,22.60
2022-10-12T17:34:44.683Z,29.30
2022-10-12T17:37:14.326Z,19.05
2022-10-12T17:39:44.591Z,24.40
2022-10-12T17:46:31.159Z,25.20
2022-10-12T17:48:59.379Z,19.00
2022-10-12T17:51:26.682Z,27.73
2022-10-12T17:53:53.822Z,23.83
2022-10-12T17:56:20.802Z,24.23
2022-10-12T17:58:52.373Z,26.92
2022-10-12T18:01:19.367Z,25.75
2022-10-12T18:03:47.792Z,21.88
2022-10-12T18:06:17.271Z,25.45
2022-10-12T18:08:44.755Z,28.00
2022-10-12T18:11:12.179Z,27.90
2022-10-12T18:13:39.245Z,26.30
2022-10-12T18:16:10.756Z,22.80
2022-10-12T18:18:38.658Z,24.42
2022-10-12T18:21:07.104Z,23.20
2022-10-12T18:23:34.093Z,27.90
2022-10-12T18:26:05.540Z,30.95
2022-10-12T18:28:32.657Z,24.50
2022-10-12T18:37:47.851Z,21.92
2022-10-12T18:40:14.847Z,23.50
2022-10-12T18:42:41.825Z,23.90
2022-10-12T18:45:09.104Z,23.55
2022-10-12T18:47:37.405Z,23.90
2022-10-12T18:50:05.722Z,26.73
2022-10-12T18:52:33.550Z,21.50
2022-10-12T18:55:00.729Z,28.00
2022-10-12T18:57:30.956Z,22.65
2022-10-12T18:59:59.187Z,27.67
2022-10-12T19:02:26.141Z,27.98
2022-10-12T19:04:53.125Z,30.50
2022-10-12T19:07:20.075Z,31.70
2022-10-12T19:09:47.263Z,28.98
2022-10-12T19:12:16.968Z,30.15
2022-10-12T19:14:44.182Z,24.38
2022-10-12T19:17:11.233Z,23.45
2022-10-12T19:19:38.411Z,26.60
2022-10-12T19:22:06.046Z,22.95
2022-10-12T19:24:33.432Z,26.20
2022-10-12T19:27:00.474Z,27.17
2022-10-12T19:29:27.431Z,28.88
2022-10-12T19:31:54.627Z,25.55
2022-10-12T19:34:22.428Z,27.77
2022-10-12T19:36:50.195Z,31.15
2022-10-12T19:39:22.577Z,29.35
2022-10-12T19:41:51.263Z,29.30
2022-10-12T19:44:19.431Z,28.63
2022-10-12T19:46:51.141Z,30.65
2022-10-12T19:49:18.983Z,34.03
2022-10-12T19:51:46.917Z,28.13
2022-10-12T19:54:15.379Z,32.22
2022-10-12T19:56:42.376Z,26.80
2022-10-12T19:59:09.820Z,30.30
2022-10-12T20:01:38.899Z,28.23
2022-10-12T20:04:09.962Z,28.73
2022-10-12T20:06:37.658Z,32.60
2022-10-12T20:09:06.427Z,31.08
2022-10-12T20:11:33.891Z,35.53
2022-10-12T20:14:01.899Z,24.23
2022-10-12T20:16:32.480Z,29.33
2022-10-12T20:19:01.815Z,28.45
2022-10-12T20:21:28.859Z,36.95
2022-10-12T20:23:55.934Z,29.60
2022-10-12T20:26:25.016Z,33.60
2022-10-12T20:28:53.466Z,30.88
2022-10-12T20:31:23.835Z,29.42
2022-10-12T20:33:58.018Z,30.08
2022-10-12T20:36:30.251Z,31.33
2022-10-12T20:38:58.483Z,33.05
2022-10-12T20:41:26.050Z,31.30
2022-10-12T20:43:57.659Z,29.55
2022-10-12T20:46:25.119Z,33.85
2022-10-12T20:53:17.716Z,33.78
2022-10-12T20:55:45.629Z,35.92
2022-10-12T20:58:13.290Z,35.50
2022-10-12T21:00:40.808Z,27.83
2022-10-12T21:03:08.126Z,33.40
2022-10-12T21:05:35.643Z,34.97
2022-10-12T21:08:03.344Z,28.00
2022-10-12T21:10:36.762Z,33.45
2022-10-12T21:13:06.948Z,29.77
2022-10-12T21:15:34.332Z,31.10
2022-10-12T21:18:01.602Z,30.02
2022-10-12T21:20:28.750Z,36.33
2022-10-12T21:22:55.690Z,35.50
2022-10-12T21:25:22.636Z,32.97
2022-10-12T21:27:49.682Z,29.08
2022-10-12T21:30:16.769Z,34.58
2022-10-12T21:32:43.719Z,34.05
2022-10-12T21:35:10.705Z,39.80
2022-10-12T21:37:37.688Z,31.55
2022-10-12T21:40:05.258Z,33.60
2022-10-12T21:42:32.185Z,38.75
2022-10-12T21:44:59.168Z,38.10
2022-10-12T21:47:26.113Z,37.75
2022-10-12T21:49:53.111Z,38.90
2022-10-12T21:52:20.286Z,37.90
2022-10-12T21:54:47.488Z,36.53
2022-10-12T21:57:14.765Z,40.40
2022-10-12T21:59:41.749Z,33.83
2022-10-12T22:02:08.687Z,36.58
2022-10-12T22:04:39.840Z,35.65
2022-10-12T22:07:06.834Z,38.08
2022-10-12T22:09:33.815Z,35.13
2022-10-12T22:12:00.766Z,32.53
2022-10-12T22:14:27.758Z,36.63
2022-10-12T22:16:54.758Z,29.02
2022-10-12T22:19:22.058Z,37.15
2022-10-12T22:21:51.252Z,28.98
2022-10-12T22:24:20.038Z,30.67
2022-10-12T22:26:47.083Z,33.72
2022-10-12T22:29:14.472Z,32.10
2022-10-12T22:31:41.646Z,30.08
2022-10-12T22:34:10.478Z,31.20
2022-10-12T22:36:37.542Z,36.35
2022-10-12T22:39:05.705Z,34.13
2022-10-12T22:41:32.684Z,31.02
2022-10-12T22:43:59.661Z,33.90
2022-10-12T22:46:27.056Z,36.63
2022-10-12T22:48:54.749Z,24.90
2022-10-12T22:51:31.025Z,24.05
2022-10-12T22:53:58.772Z,31.08
2022-10-12T22:56:26.115Z,28.92
2022-10-12T22:58:58.373Z,37.08
2022-10-12T23:01:26.305Z,35.47
2022-10-12T23:03:54.607Z,34.45
2022-10-12T23:06:22.296Z,31.33
2022-10-12T23:08:49.334Z,29.95
2022-10-12T23:11:18.605Z,36.85
2022-10-12T23:13:46.281Z,37.05
2022-10-12T23:16:21.649Z,31.92
2022-10-12T23:18:55.490Z,35.33
2022-10-12T23:21:26.082Z,33.50
2022-10-12T23:23:53.039Z,32.72
2022-10-12T23:26:22.042Z,30.20
2022-10-12T23:28:50.179Z,39.50
2022-10-12T23:31:19.765Z,34.92
2022-10-12T23:33:47.102Z,33.88
2022-10-12T23:36:16.930Z,38.38
2022-10-12T23:41:12.978Z,36.63
2022-10-12T23:43:40.308Z,37.65
2022-10-12T23:46:07.538Z,31.08
2022-10-12T23:48:35.149Z,39.03
2022-10-12T23:51:02.434Z,34.47
2022-10-12T23:53:29.411Z,32.95
2022-10-12T23:55:56.658Z,24.98
2022-10-12T23:58:23.667Z,27.35
